Time;durP1;ratioP1;P1;durP2;ratioP2;P2;SDS_P1;SDS_P2;PMS_P1;PMS_P2;Temp;Humidity;BMP_temperature;BMP_pressure;BME280_temperature;BME280_humidity;BME280_pressure;Samples;Min_cycle;Max_cycle;Signal;HPM_P1;HPM_P2
2022/08/06 00:00:45;;;;;;;1.92;1.33;;;11.70;99.90;;;;;;5022297;28;20463;-54
2022/08/06 00:03:10;;;;;;;1.73;1.35;;;11.70;99.90;;;;;;5026123;28;20171;-51
2022/08/06 00:05:36;;;;;;;1.77;1.33;;;11.70;99.90;;;;;;5024553;28;20083;-56
2022/08/06 00:08:03;;;;;;;1.58;1.48;;;11.70;99.90;;;;;;5028216;28;20045;-55
2022/08/06 00:10:29;;;;;;;3.58;1.25;;;11.60;99.90;;;;;;5021682;28;20100;-53
2022/08/06 00:12:55;;;;;;;2.10;1.17;;;11.60;99.90;;;;;;5005665;28;20113;-55
2022/08/06 00:15:20;;;;;;;3.47;1.40;;;11.60;99.90;;;;;;5028280;28;20028;-54
2022/08/06 00:17:46;;;;;;;1.17;1.10;;;11.60;99.90;;;;;;5028893;28;20036;-57
2022/08/06 00:20:14;;;;;;;2.30;0.90;;;11.50;99.90;;;;;;5024530;28;20049;-57
2022/08/06 00:22:40;;;;;;;1.60;1.30;;;11.50;99.90;;;;;;5021768;28;20033;-52
2022/08/06 00:25:07;;;;;;;1.60;1.50;;;11.50;99.90;;;;;;5023280;28;20080;-55
2022/08/06 00:27:33;;;;;;;1.10;1.00;;;11.40;99.90;;;;;;5010079;28;20034;-54
2022/08/06 00:29:59;;;;;;;3.20;1.55;;;11.40;99.90;;;;;;5027340;28;20018;-52
2022/08/06 00:32:25;;;;;;;3.80;1.42;;;11.40;99.90;;;;;;5024482;28;20030;-55
2022/08/06 00:34:50;;;;;;;2.05;0.73;;;11.40;99.90;;;;;;5026709;28;20123;-55
2022/08/06 00:37:16;;;;;;;1.42;1.30;;;11.40;99.90;;;;;;5023800;28;20480;-54
2022/08/06 00:39:41;;;;;;;2.13;1.05;;;11.50;99.90;;;;;;5024950;28;20033;-53
2022/08/06 00:42:07;;;;;;;1.35;1.17;;;11.50;99.90;;;;;;4991558;28;20562;-53
2022/08/06 00:44:33;;;;;;;2.55;1.15;;;11.50;99.90;;;;;;5027625;28;20043;-53
2022/08/06 00:46:59;;;;;;;1.58;0.85;;;11.50;99.90;;;;;;5027541;28;20026;-53
2022/08/06 00:49:24;;;;;;;1.55;1.27;;;11.50;99.90;;;;;;5001355;28;20109;-56
2022/08/06 00:51:50;;;;;;;1.23;0.90;;;11.50;99.90;;;;;;5007124;28;20116;-55
2022/08/06 00:54:16;;;;;;;3.72;1.20;;;11.50;99.90;;;;;;5008209;28;20034;-55
2022/08/06 00:56:42;;;;;;;3.25;1.13;;;11.50;99.90;;;;;;5024657;28;20048;-54
2022/08/06 00:59:07;;;;;;;1.50;1.10;;;11.50;99.90;;;;;;5023138;28;20053;-51
2022/08/06 01:01:33;;;;;;;2.97;1.30;;;11.50;99.90;;;;;;5021415;28;20044;-55
2022/08/06 01:03:59;;;;;;;1.42;1.33;;;11.50;99.90;;;;;;5021495;28;20480;-51
2022/08/06 01:06:24;;;;;;;3.25;1.25;;;11.50;99.90;;;;;;5026639;28;20461;-52
2022/08/06 01:08:50;;;;;;;1.42;1.30;;;11.50;99.90;;;;;;5009629;28;21389;-53
2022/08/06 01:11:15;;;;;;;2.88;1.10;;;11.40;99.90;;;;;;5018429;28;20044;-54
2022/08/06 01:13:42;;;;;;;1.75;1.10;;;11.40;99.90;;;;;;5017977;28;20100;-53
2022/08/06 01:16:11;;;;;;;2.50;1.17;;;11.40;99.90;;;;;;5006984;28;20407;-55
2022/08/06 01:19:03;;;;;;;3.25;1.27;;;11.40;99.90;;;;;;5026181;28;20124;-56
2022/08/06 01:21:37;;;;;;;3.10;1.10;;;11.40;99.90;;;;;;5021943;28;20132;-51
2022/08/06 01:24:41;;;;;;;1.20;1.02;;;11.40;99.90;;;;;;5013145;28;20075;-53
2022/08/06 01:27:29;;;;;;;1.52;1.10;;;11.30;99.90;;;;;;5012314;28;20034;-54
2022/08/06 01:30:01;;;;;;;5.72;1.30;;;11.30;99.90;;;;;;5009420;28;20056;-55
2022/08/06 01:32:35;;;;;;;2.20;1.17;;;11.30;99.90;;;;;;5030088;28;20104;-53
2022/08/06 01:35:07;;;;;;;2.25;1.20;;;11.20;99.90;;;;;;5031066;28;20025;-54
2022/08/06 01:37:39;;;;;;;4.05;1.33;;;11.20;99.90;;;;;;5030702;28;20025;-57
2022/08/06 01:40:11;;;;;;;1.48;1.25;;;11.20;99.90;;;;;;5012316;28;20029;-54
2022/08/06 01:42:39;;;;;;;1.30;1.17;;;11.20;99.90;;;;;;5029849;28;20511;-56
2022/08/06 01:45:09;;;;;;;1.80;1.58;;;11.10;99.90;;;;;;5027243;28;20555;-53
2022/08/06 01:47:36;;;;;;;3.38;1.77;;;11.10;99.90;;;;;;5031092;28;20029;-55
2022/08/06 01:50:05;;;;;;;2.90;1.48;;;11.10;99.90;;;;;;5029523;28;20030;-55
2022/08/06 01:52:38;;;;;;;1.00;1.00;;;11.00;99.90;;;;;;5011261;28;20183;-54
2022/08/06 01:55:09;;;;;;;2.28;1.20;;;11.00;99.90;;;;;;5030251;28;20456;-52
2022/08/06 01:57:36;;;;;;;2.90;1.35;;;11.00;99.90;;;;;;5029717;28;20029;-56
2022/08/06 02:00:04;;;;;;;2.40;1.60;;;11.00;99.90;;;;;;5030799;28;20191;-55
2022/08/06 02:02:32;;;;;;;1.70;1.55;;;10.90;99.90;;;;;;5030136;28;20026;-57
2022/08/06 02:05:00;;;;;;;1.67;1.58;;;10.90;99.90;;;;;;5028967;28;20030;-54
2022/08/06 02:07:30;;;;;;;2.53;1.70;;;10.90;99.90;;;;;;5031116;28;20491;-53
2022/08/06 02:09:58;;;;;;;2.45;1.50;;;10.90;99.90;;;;;;5029302;28;20049;-54
2022/08/06 02:12:26;;;;;;;1.40;1.30;;;10.90;99.90;;;;;;5028504;28;20518;-53
2022/08/06 02:14:55;;;;;;;5.97;1.75;;;10.90;99.90;;;;;;5028757;28;20124;-55
2022/08/06 02:17:26;;;;;;;2.88;1.40;;;10.90;99.90;;;;;;5029773;28;20021;-54
2022/08/06 02:19:55;;;;;;;1.92;1.80;;;10.80;99.90;;;;;;5026310;28;20496;-54
2022/08/06 02:22:22;;;;;;;1.17;0.90;;;10.80;99.90;;;;;;5010974;28;20025;-55
2022/08/06 02:24:48;;;;;;;1.30;1.20;;;10.80;99.90;;;;;;5027204;28;20095;-55
2022/08/06 02:27:17;;;;;;;4.05;1.35;;;10.80;99.90;;;;;;5019961;28;20018;-56
2022/08/06 02:29:45;;;;;;;1.42;1.33;;;10.80;99.90;;;;;;5030627;28;20025;-56
2022/08/06 02:32:13;;;;;;;3.25;1.30;;;10.80;99.90;;;;;;5016578;28;20021;-52
2022/08/06 02:34:38;;;;;;;3.60;1.35;;;10.80;99.90;;;;;;5004904;28;20061;-51
2022/08/06 02:37:04;;;;;;;3.20;1.40;;;10.80;99.90;;;;;;5012449;28;20440;-56
2022/08/06 02:39:39;;;;;;;1.40;1.30;;;10.70;99.90;;;;;;5029543;28;20037;-57
2022/08/06 02:42:16;;;;;;;1.52;1.40;;;10.80;99.90;;;;;;5029363;28;20084;-55
2022/08/06 02:44:55;;;;;;;1.63;1.48;;;10.70;99.90;;;;;;5026123;28;20500;-51
2022/08/06 02:47:29;;;;;;;1.30;1.30;;;10.70;99.90;;;;;;5021498;28;20108;-56
2022/08/06 02:49:59;;;;;;;3.67;2.10;;;10.70;99.90;;;;;;5027753;28;20021;-54
2022/08/06 02:52:36;;;;;;;1.77;1.67;;;10.70;99.90;;;;;;5028798;28;20403;-54
2022/08/06 02:55:11;;;;;;;1.90;1.80;;;10.70;99.90;;;;;;5029079;28;20037;-54
2022/08/06 02:57:40;;;;;;;2.95;2.00;;;10.70;99.90;;;;;;5029822;28;20155;-53
2022/08/06 03:00:09;;;;;;;1.83;1.73;;;10.70;99.90;;;;;;5007414;28;20033;-54
2022/08/06 03:02:41;;;;;;;3.92;2.20;;;10.60;99.90;;;;;;5011368;28;20395;-54
2022/08/06 03:05:14;;;;;;;2.85;1.90;;;10.60;99.90;;;;;;5028367;28;20220;-54
2022/08/06 03:07:40;;;;;;;2.67;1.77;;;10.60;99.90;;;;;;5029751;28;20021;-53
2022/08/06 03:10:08;;;;;;;5.03;2.13;;;10.60;99.90;;;;;;5022931;28;20032;-55
2022/08/06 03:12:36;;;;;;;3.15;2.15;;;10.60;99.90;;;;;;5011126;28;20029;-54
2022/08/06 03:18:26;;;;;;;1.98;1.77;;;10.60;99.90;;;;;;5025012;28;20036;-56
2022/08/06 03:20:52;;;;;;;2.22;2.10;;;10.60;99.90;;;;;;5025890;28;20057;-57
2022/08/06 03:23:20;;;;;;;2.67;2.35;;;10.50;99.90;;;;;;5027465;28;20025;-56
2022/08/06 03:25:47;;;;;;;5.95;2.75;;;10.50;99.90;;;;;;5010820;28;20026;-57
2022/08/06 03:28:15;;;;;;;1.92;1.83;;;10.50;99.90;;;;;;5009945;28;20114;-56
2022/08/06 03:30:41;;;;;;;4.75;2.10;;;10.50;99.90;;;;;;5011013;28;20049;-55
2022/08/06 03:33:11;;;;;;;3.10;1.98;;;10.50;99.90;;;;;;5008779;28;20543;-55
2022/08/06 03:35:38;;;;;;;2.83;2.55;;;10.50;99.90;;;;;;5028974;28;20098;-56
2022/08/06 03:38:09;;;;;;;3.35;2.08;;;10.40;99.90;;;;;;5028954;28;20021;-55
2022/08/06 03:40:37;;;;;;;2.33;2.08;;;10.40;99.90;;;;;;5028617;28;20512;-56
2022/08/06 03:43:03;;;;;;;5.38;2.55;;;10.40;99.90;;;;;;5027822;28;20021;-53
2022/08/06 03:45:30;;;;;;;4.82;2.20;;;10.40;99.90;;;;;;5028050;28;20123;-55
2022/08/06 03:47:57;;;;;;;6.65;2.58;;;10.30;99.90;;;;;;5027486;28;20503;-55
2022/08/06 03:50:32;;;;;;;2.85;2.55;;;10.30;99.90;;;;;;5026419;28;20021;-55
2022/08/06 03:53:05;;;;;;;2.25;2.05;;;10.30;99.90;;;;;;5026119;28;20033;-54
2022/08/06 03:55:34;;;;;;;2.38;2.05;;;10.30;99.90;;;;;;5010356;28;20037;-55
2022/08/06 03:58:02;;;;;;;3.10;2.30;;;10.30;99.90;;;;;;5028394;28;20025;-55
2022/08/06 04:00:33;;;;;;;3.08;2.33;;;10.30;99.90;;;;;;5016007;28;20037;-55
2022/08/06 04:02:59;;;;;;;1.95;1.85;;;10.30;99.90;;;;;;5026713;28;20571;-53
2022/08/06 04:05:27;;;;;;;3.15;2.25;;;10.30;99.90;;;;;;5023212;28;20057;-54
2022/08/06 04:07:58;;;;;;;3.08;2.00;;;10.30;99.90;;;;;;5019581;28;20018;-55
2022/08/06 04:10:28;;;;;;;3.72;2.30;;;10.30;99.90;;;;;;5020707;28;20056;-57
2022/08/06 04:12:54;;;;;;;2.78;2.33;;;10.30;99.90;;;;;;5022781;28;20377;-56
2022/08/06 04:15:20;;;;;;;2.75;1.95;;;10.30;99.90;;;;;;5027768;28;20407;-55
2022/08/06 04:17:47;;;;;;;3.92;2.10;;;10.30;99.90;;;;;;5022490;28;20097;-55
2022/08/06 04:20:16;;;;;;;2.00;1.90;;;10.30;99.90;;;;;;5003693;28;20121;-57
2022/08/06 04:22:42;;;;;;;3.47;2.28;;;10.30;99.90;;;;;;5022941;28;20028;-56
2022/08/06 04:25:10;;;;;;;2.17;1.80;;;10.30;99.90;;;;;;5009091;28;20025;-54
2022/08/06 04:27:38;;;;;;;1.65;1.55;;;10.30;99.90;;;;;;5024556;28;20022;-55
2022/08/06 04:30:05;;;;;;;3.03;2.35;;;10.20;99.90;;;;;;5026726;28;20025;-55
2022/08/06 04:32:32;;;;;;;3.22;2.28;;;10.30;99.90;;;;;;5005638;28;20026;-54
2022/08/06 04:35:02;;;;;;;2.50;2.03;;;10.30;99.90;;;;;;5021642;28;20021;-57
2022/08/06 04:37:27;;;;;;;2.60;2.33;;;10.30;99.90;;;;;;5024568;28;20615;-55
2022/08/06 04:39:53;;;;;;;3.60;2.30;;;10.30;99.90;;;;;;5026055;28;20068;-53
2022/08/06 04:42:19;;;;;;;3.15;2.30;;;10.30;99.90;;;;;;5027003;28;20044;-56
2022/08/06 04:44:46;;;;;;;1.98;1.88;;;10.30;99.90;;;;;;5022673;28;20136;-56
2022/08/06 04:47:12;;;;;;;3.05;2.10;;;10.30;99.90;;;;;;5022105;28;20033;-55
2022/08/06 04:49:37;;;;;;;4.70;2.50;;;10.40;99.90;;;;;;5010303;28;20183;-57
2022/08/06 04:52:03;;;;;;;3.35;2.78;;;10.40;99.90;;;;;;5026965;28;20038;-56
2022/08/06 04:54:29;;;;;;;5.15;2.30;;;10.40;99.90;;;;;;5020095;28;20093;-54
2022/08/06 04:56:54;;;;;;;3.00;2.50;;;10.50;99.90;;;;;;5024069;28;20044;-57
2022/08/06 04:59:20;;;;;;;1.98;1.85;;;10.50;99.90;;;;;;5024199;28;20033;-57
2022/08/06 05:01:46;;;;;;;3.45;2.42;;;10.60;99.90;;;;;;5027377;28;20033;-55
2022/08/06 05:04:11;;;;;;;4.05;2.45;;;10.60;99.90;;;;;;5027990;28;20033;-53
2022/08/06 05:06:49;;;;;;;3.95;2.28;;;10.70;99.90;;;;;;5026311;28;20104;-53
2022/08/06 05:09:25;;;;;;;4.07;2.17;;;10.70;99.90;;;;;;5002274;28;20476;-52
2022/08/06 05:11:59;;;;;;;3.25;2.10;;;10.80;99.90;;;;;;5028077;28;20060;-55
2022/08/06 05:14:40;;;;;;;2.47;2.28;;;10.80;99.90;;;;;;5028281;28;20554;-55
2022/08/06 05:17:08;;;;;;;3.50;2.13;;;10.90;99.90;;;;;;5011897;28;20042;-54
2022/08/06 05:19:41;;;;;;;3.15;2.85;;;10.90;99.90;;;;;;5031386;28;20030;-55
2022/08/06 05:22:08;;;;;;;3.25;2.35;;;11.10;99.90;;;;;;5031392;28;20028;-54
2022/08/06 05:24:34;;;;;;;6.15;2.50;;;11.10;99.90;;;;;;5028165;28;20021;-51
2022/08/06 05:27:00;;;;;;;4.60;2.17;;;11.20;99.90;;;;;;5026170;28;20484;-56
2022/08/06 05:29:25;;;;;;;2.75;2.25;;;11.30;99.90;;;;;;5024844;28;20053;-53
2022/08/06 05:31:58;;;;;;;3.47;1.92;;;11.30;99.90;;;;;;5008779;28;20446;-55
2022/08/06 05:34:23;;;;;;;1.83;1.73;;;11.40;99.90;;;;;;5031878;28;20480;-56
2022/08/06 05:36:49;;;;;;;2.10;1.90;;;11.50;99.90;;;;;;5014424;28;20029;-56
2022/08/06 05:39:15;;;;;;;2.80;2.25;;;11.60;99.90;;;;;;5013456;28;20029;-57
2022/08/06 05:41:41;;;;;;;2.15;2.05;;;11.80;99.90;;;;;;5030983;28;20037;-56
2022/08/06 05:44:06;;;;;;;3.00;1.98;;;11.90;99.90;;;;;;5013942;28;20388;-53
2022/08/06 05:46:54;;;;;;;1.52;1.40;;;12.00;99.90;;;;;;5031311;28;20040;-56
2022/08/06 05:49:21;;;;;;;4.88;2.28;;;12.10;99.90;;;;;;5024163;28;20025;-54
2022/08/06 05:52:00;;;;;;;2.78;1.75;;;12.20;99.90;;;;;;5012921;28;20021;-52
2022/08/06 05:54:33;;;;;;;3.33;1.70;;;12.20;99.90;;;;;;5022704;28;20415;-56
2022/08/06 05:57:06;;;;;;;3.00;1.95;;;12.30;99.90;;;;;;5013613;28;20022;-53
2022/08/06 05:59:35;;;;;;;1.55;1.45;;;12.40;99.90;;;;;;5031090;28;20792;-53
2022/08/06 06:02:02;;;;;;;1.92;1.55;;;12.40;99.90;;;;;;5030128;28;20159;-56
2022/08/06 06:04:28;;;;;;;2.75;1.70;;;12.50;99.90;;;;;;5031454;28;20068;-51
2022/08/06 06:06:54;;;;;;;1.60;1.50;;;12.60;99.90;;;;;;5013064;28;20105;-54
2022/08/06 06:09:20;;;;;;;2.13;1.55;;;12.70;99.90;;;;;;5011705;28;20196;-54
2022/08/06 06:11:48;;;;;;;5.20;1.30;;;12.80;99.90;;;;;;5029725;28;20079;-55
2022/08/06 06:14:23;;;;;;;4.47;1.52;;;12.90;99.90;;;;;;5021410;28;20511;-56
2022/08/06 06:17:04;;;;;;;1.80;1.55;;;13.00;99.90;;;;;;5030879;28;20030;-56
2022/08/06 06:19:42;;;;;;;2.17;1.33;;;13.20;99.90;;;;;;5028575;28;20037;-52
2022/08/06 06:22:23;;;;;;;3.28;1.23;;;13.30;99.90;;;;;;5030158;28;20037;-55
2022/08/06 06:25:09;;;;;;;7.10;1.10;;;13.40;99.90;;;;;;5026181;28;20064;-54
2022/08/06 06:27:43;;;;;;;;;;;13.50;99.90;;;;;;5013070;28;20028;-55
2022/08/06 06:30:17;;;;;;;4.05;1.38;;;13.60;99.90;;;;;;5030222;28;19924;-55
2022/08/06 06:32:57;;;;;;;3.28;0.95;;;13.70;99.90;;;;;;5027661;28;20554;-55
2022/08/06 06:35:33;;;;;;;1.20;1.10;;;13.80;99.90;;;;;;5008143;28;20030;-52
2022/08/06 06:38:05;;;;;;;0.90;0.90;;;14.00;99.90;;;;;;5007885;28;20404;-53
2022/08/06 06:40:30;;;;;;;1.30;1.10;;;14.20;99.90;;;;;;5030493;28;20538;-51
2022/08/06 06:43:05;;;;;;;1.38;1.02;;;14.30;99.90;;;;;;5026332;28;20032;-52
2022/08/06 06:45:37;;;;;;;2.65;1.00;;;14.40;99.90;;;;;;5030124;28;20029;-56
2022/08/06 06:48:18;;;;;;;2.80;1.50;;;14.50;99.90;;;;;;5011614;28;20136;-52
2022/08/06 06:50:52;;;;;;;1.65;1.00;;;14.70;99.90;;;;;;5013804;28;20026;-54
2022/08/06 06:53:18;;;;;;;1.05;0.73;;;14.80;99.90;;;;;;5024664;28;20495;-55
2022/08/06 06:55:47;;;;;;;0.77;0.68;;;14.90;99.90;;;;;;5029515;28;20029;-55
2022/08/06 06:58:35;;;;;;;1.20;0.85;;;15.10;99.90;;;;;;5030408;28;20391;-55
2022/08/06 07:01:03;;;;;;;1.88;0.80;;;15.20;99.90;;;;;;5025640;28;20022;-55
2022/08/06 07:03:33;;;;;;;1.40;0.80;;;15.40;99.90;;;;;;5011498;28;20037;-55
2022/08/06 07:06:00;;;;;;;2.10;0.80;;;15.60;99.90;;;;;;5029657;28;20470;-53
2022/08/06 07:08:28;;;;;;;3.80;1.23;;;15.80;99.90;;;;;;5029133;28;20025;-56
2022/08/06 07:10:55;;;;;;;5.45;1.92;;;16.00;99.90;;;;;;5023924;28;20033;-54
2022/08/06 07:13:24;;;;;;;3.50;2.15;;;16.10;99.90;;;;;;5011289;28;20503;-53
2022/08/06 07:15:51;;;;;;;2.40;1.23;;;16.20;99.90;;;;;;5028634;28;20056;-57
2022/08/06 07:18:18;;;;;;;2.05;0.77;;;16.40;99.90;;;;;;5011576;28;20137;-55
2022/08/06 07:20:44;;;;;;;3.83;0.93;;;16.50;99.90;;;;;;5027439;28;20080;-56
2022/08/06 07:23:15;;;;;;;4.95;1.42;;;16.60;99.90;;;;;;5027724;28;20033;-54
2022/08/06 07:25:44;;;;;;;1.80;0.80;;;16.70;99.90;;;;;;5009997;28;20036;-55
2022/08/06 07:28:12;;;;;;;2.30;0.68;;;16.80;99.90;;;;;;5029053;28;20036;-56
2022/08/06 07:30:40;;;;;;;3.00;0.95;;;16.90;99.90;;;;;;5011372;28;20116;-51
2022/08/06 07:33:08;;;;;;;1.40;0.50;;;16.90;99.90;;;;;;5028726;28;20017;-56
2022/08/06 07:35:34;;;;;;;0.75;0.45;;;16.90;99.90;;;;;;5029260;28;20071;-55
2022/08/06 07:38:03;;;;;;;1.80;0.50;;;16.90;99.90;;;;;;5029456;28;20549;-52
2022/08/06 07:40:44;;;;;;;2.72;0.80;;;16.90;99.90;;;;;;5029149;28;20036;-56
2022/08/06 07:43:30;;;;;;;3.40;0.60;;;17.00;99.90;;;;;;5011432;28;20037;-53
2022/08/06 07:45:58;;;;;;;2.20;0.82;;;17.10;99.90;;;;;;5028986;28;20025;-56
2022/08/06 07:48:39;;;;;;;4.07;1.00;;;17.10;99.90;;;;;;5028815;28;20101;-55
2022/08/06 07:51:05;;;;;;;2.03;0.80;;;17.30;99.90;;;;;;5029567;28;20053;-54
2022/08/06 07:53:32;;;;;;;1.67;0.90;;;17.40;99.90;;;;;;5026176;28;20241;-55
2022/08/06 07:55:59;;;;;;;1.73;0.55;;;17.60;99.90;;;;;;5011365;28;20048;-56
2022/08/06 07:58:26;;;;;;;0.75;0.73;;;17.90;99.90;;;;;;5022212;28;20450;-52
2022/08/06 08:00:52;;;;;;;3.70;0.68;;;18.00;99.90;;;;;;5011061;28;20041;-56
2022/08/06 08:06:22;;;;;;;2.25;0.75;;;18.30;99.90;;;;;;5028850;28;20442;-55
2022/08/06 08:08:56;;;;;;;3.08;0.55;;;18.50;99.90;;;;;;5022004;28;20014;-55
2022/08/06 08:11:24;;;;;;;3.10;1.27;;;18.70;99.90;;;;;;5020467;28;20030;-56
2022/08/06 08:13:55;;;;;;;1.77;0.95;;;18.90;99.90;;;;;;5028374;28;20063;-55
2022/08/06 08:16:21;;;;;;;0.75;0.70;;;19.00;99.90;;;;;;5028493;28;20026;-55
2022/08/06 08:18:48;;;;;;;4.22;1.00;;;19.10;99.90;;;;;;5010894;28;20487;-53
2022/08/06 08:21:14;;;;;;;2.05;0.60;;;19.20;99.90;;;;;;5025638;28;20068;-53
2022/08/06 08:23:40;;;;;;;0.82;0.50;;;19.40;99.90;;;;;;5022255;28;20021;-52
2022/08/06 08:26:07;;;;;;;1.80;0.40;;;19.60;99.90;;;;;;5027181;28;20025;-54
2022/08/06 08:28:32;;;;;;;0.38;0.30;;;19.70;99.90;;;;;;5005314;28;20048;-55
2022/08/06 08:31:01;;;;;;;4.93;0.98;;;19.80;99.90;;;;;;5026815;28;20025;-56
2022/08/06 08:33:27;;;;;;;2.63;0.88;;;20.00;99.90;;;;;;5021410;28;20057;-55
2022/08/06 08:35:53;;;;;;;1.52;0.40;;;20.10;99.90;;;;;;5026954;28;20071;-57
2022/08/06 08:38:19;;;;;;;1.73;0.65;;;20.30;99.90;;;;;;5028073;28;20017;-53
2022/08/06 08:40:47;;;;;;;2.05;0.45;;;20.40;99.90;;;;;;5024694;28;20030;-55
2022/08/06 08:43:20;;;;;;;1.52;0.73;;;20.30;99.90;;;;;;5010303;28;20028;-57
2022/08/06 08:45:50;;;;;;;3.08;0.50;;;20.30;99.90;;;;;;5027281;28;20022;-56
2022/08/06 08:48:19;;;;;;;3.38;0.32;;;20.40;99.90;;;;;;5026482;28;20021;-59
2022/08/06 08:50:47;;;;;;;0.98;0.55;;;20.50;99.90;;;;;;5023174;28;20416;-56
2022/08/06 08:53:14;;;;;;;0.50;0.35;;;20.30;99.90;;;;;;5025887;28;20494;-56
2022/08/06 08:55:41;;;;;;;0.98;0.30;;;20.00;99.90;;;;;;5022775;28;20404;-57
2022/08/06 08:58:07;;;;;;;2.08;0.47;;;20.00;99.90;;;;;;5027297;28;20025;-55
2022/08/06 09:00:34;;;;;;;1.45;0.30;;;20.20;99.90;;;;;;5024662;28;20030;-54
2022/08/06 09:03:02;;;;;;;1.77;0.75;;;20.40;99.90;;;;;;5008040;28;20026;-54
2022/08/06 09:05:29;;;;;;;0.73;0.52;;;20.60;99.90;;;;;;5025176;28;20048;-54
2022/08/06 09:07:56;;;;;;;3.75;0.70;;;20.70;99.90;;;;;;5010231;28;20029;-56
2022/08/06 09:10:24;;;;;;;1.75;0.50;;;20.80;99.90;;;;;;5027797;28;20040;-55
2022/08/06 09:12:50;;;;;;;1.48;0.68;;;21.00;99.90;;;;;;5027717;28;20028;-58
2022/08/06 09:15:16;;;;;;;0.40;0.28;;;21.10;99.90;;;;;;5025265;28;20041;-57
2022/08/06 09:17:42;;;;;;;3.88;0.60;;;21.10;99.90;;;;;;5028294;28;20088;-57
2022/08/06 09:20:08;;;;;;;1.58;0.43;;;21.20;99.90;;;;;;5024134;28;20037;-57
2022/08/06 09:22:33;;;;;;;1.30;0.50;;;21.30;98.60;;;;;;5026539;28;20037;-54
2022/08/06 09:25:00;;;;;;;1.13;0.50;;;21.20;98.20;;;;;;5010875;28;20028;-57
2022/08/06 09:27:34;;;;;;;1.38;0.40;;;20.80;98.50;;;;;;5028334;28;20025;-57
2022/08/06 09:30:04;;;;;;;1.13;0.43;;;20.50;99.40;;;;;;5023654;28;20064;-57
2022/08/06 09:32:36;;;;;;;0.60;0.40;;;20.30;99.40;;;;;;5027377;28;20022;-56
2022/08/06 09:35:03;;;;;;;1.67;0.55;;;20.00;99.40;;;;;;5005248;28;20443;-56
2022/08/06 09:37:29;;;;;;;1.30;0.50;;;19.70;99.90;;;;;;5028012;28;20017;-56
2022/08/06 09:39:55;;;;;;;0.50;0.50;;;19.50;99.90;;;;;;5024965;28;20033;-57
2022/08/06 09:42:37;;;;;;;3.65;0.77;;;19.10;99.90;;;;;;5027920;28;20190;-55
2022/08/06 09:45:12;;;;;;;4.45;0.70;;;18.70;99.90;;;;;;5025388;28;20048;-59
2022/08/06 09:47:37;;;;;;;2.78;0.68;;;18.50;99.90;;;;;;5032060;28;20079;-57
2022/08/06 09:50:06;;;;;;;1.33;0.50;;;18.40;99.90;;;;;;5025774;28;20033;-58
2022/08/06 09:52:32;;;;;;;2.95;0.60;;;18.30;99.90;;;;;;5030099;28;20065;-58
2022/08/06 09:54:58;;;;;;;1.08;0.63;;;18.40;99.90;;;;;;5011753;28;20515;-57
2022/08/06 09:57:40;;;;;;;2.60;0.55;;;18.40;99.90;;;;;;5030542;28;20053;-57
2022/08/06 10:00:08;;;;;;;1.80;0.60;;;18.40;99.90;;;;;;5028450;28;20029;-58
2022/08/06 10:02:34;;;;;;;1.35;0.70;;;18.50;99.90;;;;;;5030469;28;20018;-58
2022/08/06 10:05:08;;;;;;;3.50;0.90;;;18.60;99.90;;;;;;5028272;28;20079;-56
2022/08/06 10:07:33;;;;;;;2.17;1.17;;;18.70;99.90;;;;;;5031832;28;20029;-56
2022/08/06 10:09:59;;;;;;;1.25;0.82;;;18.90;99.90;;;;;;5030570;28;20675;-58
2022/08/06 10:12:24;;;;;;;0.80;0.75;;;18.90;99.90;;;;;;5030639;28;20021;-56
2022/08/06 10:14:51;;;;;;;1.08;0.63;;;19.00;99.90;;;;;;5031191;28;20091;-57
2022/08/06 10:17:19;;;;;;;2.50;0.82;;;18.90;99.90;;;;;;5031150;28;20033;-57
2022/08/06 10:20:05;;;;;;;1.23;0.60;;;18.80;99.90;;;;;;5030698;28;20440;-57
2022/08/06 10:22:30;;;;;;;2.45;0.90;;;18.80;99.90;;;;;;5028031;28;20033;-57
2022/08/06 10:25:01;;;;;;;3.70;1.23;;;18.90;99.90;;;;;;5026234;28;20038;-56
2022/08/06 10:27:31;;;;;;;1.70;0.95;;;19.10;99.90;;;;;;5030862;28;20026;-57
2022/08/06 10:30:02;;;;;;;1.73;1.00;;;19.40;99.90;;;;;;5012155;28;20539;-58
2022/08/06 10:32:37;;;;;;;3.25;1.40;;;19.40;99.90;;;;;;5030381;28;20059;-58
2022/08/06 10:35:05;;;;;;;4.57;1.65;;;19.40;99.90;;;;;;5029529;28;20096;-58
2022/08/06 10:37:41;;;;;;;1.83;1.35;;;19.60;99.60;;;;;;5030369;28;20523;-57
2022/08/06 10:40:09;;;;;;;3.30;1.63;;;19.70;99.30;;;;;;5031000;28;20071;-59
2022/08/06 10:42:34;;;;;;;2.83;1.55;;;19.70;97.60;;;;;;5029772;28;20077;-56
2022/08/06 10:45:02;;;;;;;2.15;1.58;;;19.70;99.00;;;;;;5006351;28;20022;-58
2022/08/06 10:47:28;;;;;;;4.40;2.50;;;19.90;99.20;;;;;;5030347;28;20018;-57
2022/08/06 10:49:56;;;;;;;4.47;2.20;;;20.00;98.40;;;;;;5009441;28;20029;-57
2022/08/06 10:52:21;;;;;;;3.40;2.08;;;20.10;97.00;;;;;;5029836;28;20090;-56
2022/08/06 10:54:48;;;;;;;3.17;2.10;;;20.20;96.50;;;;;;5028181;28;20532;-58
2022/08/06 10:57:14;;;;;;;4.60;2.55;;;20.20;96.40;;;;;;5030368;28;20468;-57
2022/08/06 10:59:45;;;;;;;5.22;2.72;;;20.40;98.30;;;;;;5030189;28;20041;-56
2022/08/06 11:02:40;;;;;;;3.75;2.58;;;20.40;96.40;;;;;;5026945;28;20093;-54
2022/08/06 11:05:13;;;;;;;2.38;2.00;;;20.50;96.30;;;;;;5030027;28;20017;-57
2022/08/06 11:07:47;;;;;;;2.33;2.13;;;20.60;95.30;;;;;;5030660;28;20361;-56
2022/08/06 11:10:39;;;;;;;3.72;2.50;;;20.70;93.80;;;;;;5030045;28;20038;-57
2022/08/06 11:13:27;;;;;;;2.90;2.45;;;20.70;94.20;;;;;;5029219;28;20021;-59
2022/08/06 11:15:54;;;;;;;3.17;2.17;;;20.60;94.80;;;;;;5027489;28;20488;-58
2022/08/06 11:18:20;;;;;;;2.53;2.33;;;20.70;94.40;;;;;;5012348;28;20087;-59
2022/08/06 11:20:50;;;;;;;3.33;2.70;;;20.60;94.40;;;;;;5029973;28;20033;-58
2022/08/06 11:23:15;;;;;;;3.63;2.30;;;20.60;95.00;;;;;;5021661;28;20060;-57
2022/08/06 11:25:45;;;;;;;3.78;3.03;;;20.60;94.20;;;;;;5029762;28;20051;-55
2022/08/06 11:28:16;;;;;;;3.80;2.78;;;20.70;93.30;;;;;;5029785;28;20079;-56
2022/08/06 11:30:53;;;;;;;5.03;3.08;;;20.70;93.40;;;;;;5029943;28;20435;-56
2022/08/06 11:33:38;;;;;;;4.43;2.60;;;20.70;93.40;;;;;;5026443;28;20029;-56
2022/08/06 11:36:09;;;;;;;2.97;2.67;;;20.80;93.70;;;;;;5029023;28;20032;-58
2022/08/06 11:38:52;;;;;;;3.42;2.60;;;20.70;93.30;;;;;;5029736;28;20033;-56
2022/08/06 11:41:21;;;;;;;3.78;2.40;;;20.50;91.50;;;;;;5020815;28;20092;-56
2022/08/06 11:43:53;;;;;;;2.42;2.20;;;20.40;92.20;;;;;;5030278;28;20052;-58
2022/08/06 11:46:23;;;;;;;4.32;2.40;;;20.40;91.70;;;;;;5028939;28;20392;-59
2022/08/06 11:49:04;;;;;;;3.50;3.08;;;20.40;90.00;;;;;;5029476;28;20053;-57
2022/08/06 11:51:55;;;;;;;4.68;3.30;;;20.40;90.90;;;;;;5028689;28;20033;-59
2022/08/06 11:54:32;;;;;;;3.05;2.75;;;20.40;91.50;;;;;;5020958;28;20107;-57
2022/08/06 11:59:29;;;;;;;2.38;1.95;;;20.50;91.70;;;;;;5029438;28;20048;-55
2022/08/06 12:01:55;;;;;;;1.80;1.70;;;20.40;87.40;;;;;;5026097;28;20033;-55
2022/08/06 12:04:36;;;;;;;2.20;1.85;;;20.20;83.00;;;;;;5028910;28;20025;-60
2022/08/06 12:07:25;;;;;;;2.00;1.77;;;20.20;82.50;;;;;;5027978;28;20037;-57
2022/08/06 12:10:02;;;;;;;3.15;2.38;;;20.20;83.10;;;;;;5011317;28;20025;-59
2022/08/06 12:12:50;;;;;;;4.22;2.30;;;20.30;81.90;;;;;;5021094;28;20568;-59
2022/08/06 12:15:16;;;;;;;4.10;2.90;;;20.30;83.50;;;;;;5025110;28;20013;-54
2022/08/06 12:17:56;;;;;;;4.80;2.85;;;20.50;85.20;;;;;;5029350;28;20097;-57
2022/08/06 12:20:33;;;;;;;3.08;2.65;;;20.60;85.20;;;;;;5024590;28;20037;-56
2022/08/06 12:23:24;;;;;;;3.33;3.03;;;20.50;86.30;;;;;;5028176;28;20072;-58
2022/08/06 12:25:54;;;;;;;5.72;3.70;;;20.50;87.60;;;;;;5023035;28;20095;-58
2022/08/06 12:28:20;;;;;;;3.58;2.70;;;20.60;85.60;;;;;;5010910;28;20555;-58
2022/08/06 12:30:50;;;;;;;5.60;2.85;;;20.80;89.20;;;;;;5029245;28;20112;-58
2022/08/06 12:33:17;;;;;;;2.95;2.75;;;20.80;82.70;;;;;;5024373;28;20033;-57
2022/08/06 12:36:00;;;;;;;2.72;2.53;;;20.90;84.20;;;;;;5027280;28;20035;-58
2022/08/06 12:38:30;;;;;;;3.60;2.60;;;21.00;81.70;;;;;;5022267;28;20021;-59
2022/08/06 12:41:00;;;;;;;3.50;3.08;;;20.90;83.40;;;;;;5028087;28;20026;-59
2022/08/06 12:43:30;;;;;;;3.42;3.03;;;21.00;81.30;;;;;;5027916;28;20025;-58
2022/08/06 12:45:57;;;;;;;4.97;3.20;;;21.10;82.00;;;;;;5010769;28;20135;-58
2022/08/06 12:48:23;;;;;;;6.55;3.63;;;21.10;82.70;;;;;;5028014;28;20062;-59
2022/08/06 12:50:48;;;;;;;3.50;3.00;;;21.10;83.10;;;;;;5027530;28;20030;-58
2022/08/06 12:53:17;;;;;;;3.92;3.35;;;20.90;83.10;;;;;;5023037;28;20450;-58
2022/08/06 12:55:51;;;;;;;3.40;2.90;;;20.90;83.00;;;;;;5023381;28;20025;-57
2022/08/06 12:58:19;;;;;;;5.63;3.17;;;20.80;84.50;;;;;;5024857;28;20029;-57
2022/08/06 13:00:55;;;;;;;5.47;3.75;;;21.00;85.10;;;;;;5021959;28;20041;-59
2022/08/06 13:03:23;;;;;;;3.60;3.30;;;21.20;86.00;;;;;;5024642;28;20021;-58
2022/08/06 13:05:50;;;;;;;4.47;3.58;;;21.30;84.70;;;;;;5023885;28;20032;-60
2022/08/06 13:08:18;;;;;;;4.07;3.58;;;21.40;85.40;;;;;;5023130;28;20033;-57
2022/08/06 13:10:52;;;;;;;3.60;3.30;;;21.60;84.20;;;;;;5027957;28;20105;-58